createdAt,value
2022-11-19T00:01:28.611Z,97435.94
2022-11-19T00:03:56.247Z,97422.59
2022-11-19T00:06:28.023Z,97426.88
2022-11-19T00:08:55.588Z,97423.06
2022-11-19T00:11:44.507Z,97425.09
2022-11-19T00:14:14.575Z,97426.16
2022-11-19T00:16:41.959Z,97424.75
2022-11-19T00:19:11.188Z,97420.44
2022-11-19T00:21:38.082Z,97422.47
2022-11-19T00:24:05.591Z,97416.28
2022-11-19T00:26:32.567Z,97425.56
2022-11-19T00:28:59.475Z,97421.41
2022-11-19T00:31:26.410Z,97411.94
2022-11-19T00:33:54.851Z,97420.88
2022-11-19T00:36:22.995Z,97423.75
2022-11-19T00:38:50.143Z,97419.56
2022-11-19T00:41:17.142Z,97420.97
2022-11-19T00:43:47.056Z,97420.78
2022-11-19T00:46:25.208Z,97418.22
2022-11-19T00:48:55.965Z,97421.56
2022-11-19T00:51:29.043Z,97413.69
2022-11-19T00:53:56.930Z,97418.16
2022-11-19T00:56:26.876Z,97415.16
2022-11-19T00:58:54.839Z,97411.00
2022-11-19T01:01:25.355Z,97406.34
2022-11-19T01:03:53.018Z,97406.47
2022-11-19T01:06:23.092Z,97405.97
2022-11-19T01:08:52.186Z,97410.28
2022-11-19T01:11:32.056Z,97416.03
2022-11-19T01:13:59.627Z,97413.97
2022-11-19T01:16:33.769Z,97419.84
2022-11-19T01:19:01.358Z,97421.16
2022-11-19T01:21:32.037Z,97420.31
2022-11-19T01:23:59.891Z,97428.19
2022-11-19T01:26:28.257Z,97422.56
2022-11-19T01:28:56.104Z,97425.19
2022-11-19T01:31:28.762Z,97424.69
2022-11-19T01:33:55.919Z,97424.94
2022-11-19T01:36:28.480Z,97421.13
2022-11-19T01:38:56.545Z,97428.06
2022-11-19T01:41:30.203Z,97425.56
2022-11-19T01:44:07.650Z,97428.66
2022-11-19T01:46:38.254Z,97437.50
2022-11-19T01:49:05.139Z,97433.66
2022-11-19T01:51:58.018Z,97433.75
2022-11-19T01:54:47.136Z,97422.66
2022-11-19T01:57:17.006Z,97426.00
2022-11-19T01:59:47.574Z,97419.06
2022-11-19T02:02:14.742Z,97425.41
2022-11-19T02:04:42.795Z,97437.00
2022-11-19T02:07:11.701Z,97434.75
2022-11-19T02:09:39.800Z,97438.81
2022-11-19T02:12:30.912Z,97441.09
2022-11-19T02:15:33.877Z,97439.78
2022-11-19T02:18:25.068Z,97449.41
2022-11-19T02:21:07.617Z,97439.38
2022-11-19T02:24:03.209Z,97433.16
2022-11-19T02:27:06.837Z,97431.50
2022-11-19T02:30:05.376Z,97433.88
2022-11-19T02:32:47.654Z,97431.13
2022-11-19T02:35:37.803Z,97436.97
2022-11-19T02:38:30.802Z,97428.25
2022-11-19T02:41:35.531Z,97440.19
2022-11-19T02:44:54.526Z,97441.53
2022-11-19T02:47:35.726Z,97441.31
2022-11-19T02:50:21.139Z,97440.00
2022-11-19T02:52:48.611Z,97437.72
2022-11-19T02:55:19.103Z,97439.16
2022-11-19T02:58:10.524Z,97437.72
2022-11-19T03:01:07.198Z,97445.38
2022-11-19T03:03:53.624Z,97449.66
2022-11-19T03:06:27.588Z,97443.22
2022-11-19T03:08:54.710Z,97451.31
2022-11-19T03:11:28.704Z,97449.91
2022-11-19T03:14:40.751Z,97448.47
2022-11-19T03:18:03.310Z,97446.78
2022-11-19T03:20:42.152Z,97448.69
2022-11-19T03:23:25.981Z,97453.00
2022-11-19T03:26:45.716Z,97458.50
2022-11-19T03:29:15.033Z,97453.22
2022-11-19T03:31:51.054Z,97456.44
2022-11-19T03:34:22.443Z,97461.31
2022-11-19T03:36:53.739Z,97462.91
2022-11-19T03:39:21.904Z,97459.31
2022-11-19T03:41:51.340Z,97456.69
2022-11-19T03:44:41.000Z,97460.75
2022-11-19T03:47:13.754Z,97468.06
2022-11-19T03:49:46.139Z,97466.84
2022-11-19T03:52:19.996Z,97463.50
2022-11-19T03:54:47.221Z,97470.31
2022-11-19T03:57:19.197Z,97470.66
2022-11-19T03:59:47.076Z,97469.81
2022-11-19T04:02:15.029Z,97469.56
2022-11-19T04:04:42.679Z,97472.81
2022-11-19T04:07:14.835Z,97471.97
2022-11-19T04:09:43.296Z,97479.41
2022-11-19T04:12:24.868Z,97476.50
2022-11-19T04:14:52.753Z,97475.53
2022-11-19T04:17:20.597Z,97481.78
2022-11-19T04:19:48.168Z,97480.69
2022-11-19T04:22:15.334Z,97476.00
2022-11-19T04:24:42.353Z,97477.72
2022-11-19T04:27:09.490Z,97465.59
2022-11-19T04:29:36.417Z,97467.78
2022-11-19T04:32:03.390Z,97475.69
2022-11-19T04:34:30.351Z,97471.97
2022-11-19T04:36:57.318Z,97473.38
2022-11-19T04:39:24.337Z,97473.38
2022-11-19T04:41:51.273Z,97470.19
2022-11-19T04:44:18.405Z,97476.72
2022-11-19T04:46:45.306Z,97471.00
2022-11-19T04:49:12.215Z,97465.75
2022-11-19T04:51:39.111Z,97476.47
2022-11-19T04:54:08.629Z,97479.00
2022-11-19T04:56:37.290Z,97480.56
2022-11-19T04:59:05.058Z,97480.94
2022-11-19T05:01:32.321Z,97479.97
2022-11-19T05:03:59.344Z,97482.28
2022-11-19T05:06:26.289Z,97478.78
2022-11-19T05:08:53.411Z,97478.22
2022-11-19T05:11:20.336Z,97478.78
2022-11-19T05:13:47.331Z,97480.09
2022-11-19T05:16:14.288Z,97479.16
2022-11-19T05:18:41.286Z,97479.53
2022-11-19T05:21:08.523Z,97479.75
2022-11-19T05:23:35.566Z,97475.81
2022-11-19T05:26:02.536Z,97477.22
2022-11-19T05:28:38.557Z,97476.75
2022-11-19T05:31:07.522Z,97476.66
2022-11-19T05:33:34.878Z,97478.31
2022-11-19T05:36:02.707Z,97480.94
2022-11-19T05:38:29.696Z,97475.69
2022-11-19T05:40:56.683Z,97474.84
2022-11-19T05:43:23.689Z,97473.88
2022-11-19T05:45:50.595Z,97481.66
2022-11-19T05:48:17.596Z,97479.75
2022-11-19T05:50:44.568Z,97482.50
2022-11-19T05:53:11.564Z,97479.88
2022-11-19T05:55:38.523Z,97485.69
2022-11-19T05:58:05.428Z,97479.66
2022-11-19T06:00:32.344Z,97486.91
2022-11-19T06:02:59.388Z,97488.00
2022-11-19T06:05:26.445Z,97493.00
2022-11-19T06:07:53.407Z,97490.84
2022-11-19T06:10:20.372Z,97487.63
2022-11-19T06:12:47.376Z,97486.19
2022-11-19T06:15:15.071Z,97493.94
2022-11-19T06:17:42.308Z,97496.81
2022-11-19T06:20:11.218Z,97490.38
2022-11-19T06:22:39.762Z,97500.53
2022-11-19T06:25:07.987Z,97498.00
2022-11-19T06:27:35.103Z,97503.75
2022-11-19T06:30:02.211Z,97502.06
2022-11-19T06:32:29.206Z,97504.56
2022-11-19T06:34:56.238Z,97511.16
2022-11-19T06:37:23.375Z,97513.41
2022-11-19T06:39:50.568Z,97509.84
2022-11-19T06:42:36.145Z,97509.59
2022-11-19T06:45:11.052Z,97515.56
2022-11-19T06:47:40.353Z,97520.59
2022-11-19T06:50:10.311Z,97516.28
2022-11-19T06:52:37.456Z,97515.56
2022-11-19T06:55:05.258Z,97525.22
2022-11-19T06:57:32.196Z,97528.00
2022-11-19T06:59:59.183Z,97526.69
2022-11-19T07:02:26.072Z,97530.13
2022-11-19T07:04:53.079Z,97530.59
2022-11-19T07:07:20.802Z,97536.47
2022-11-19T07:09:47.805Z,97536.00
2022-11-19T07:12:14.778Z,97538.25
2022-11-19T07:14:41.841Z,97541.94
2022-11-19T07:17:08.756Z,97543.28
2022-11-19T07:19:35.630Z,97550.09
2022-11-19T07:22:02.624Z,97542.69
2022-11-19T07:24:29.595Z,97545.06
2022-11-19T07:26:56.601Z,97544.69
2022-11-19T07:29:23.946Z,97551.16
2022-11-19T07:31:53.178Z,97548.53
2022-11-19T07:34:20.898Z,97545.41
2022-11-19T07:36:48.660Z,97552.09
2022-11-19T07:39:16.495Z,97547.81
2022-11-19T07:42:02.418Z,97554.25
2022-11-19T07:44:29.372Z,97551.47
2022-11-19T07:46:56.468Z,97559.97
2022-11-19T07:49:24.889Z,97564.97
2022-11-19T07:51:52.928Z,97569.53
2022-11-19T07:54:20.395Z,97571.69
2022-11-19T07:56:47.265Z,97569.88
2022-11-19T07:59:14.204Z,97572.72
2022-11-19T08:01:41.238Z,97577.84
2022-11-19T08:04:08.211Z,97570.06
2022-11-19T08:06:35.289Z,97574.72
2022-11-19T08:09:04.321Z,97566.84
2022-11-19T08:11:31.797Z,97574.63
2022-11-19T08:14:03.037Z,97570.91
2022-11-19T08:16:51.245Z,97558.56
2022-11-19T08:19:19.049Z,97562.81
2022-11-19T08:21:47.695Z,97562.53
2022-11-19T08:24:18.416Z,97562.47
2022-11-19T08:26:46.770Z,97564.19
2022-11-19T08:29:17.008Z,97564.38
2022-11-19T08:31:47.800Z,97564.56
2022-11-19T08:34:16.248Z,97561.72
2022-11-19T08:36:44.077Z,97564.50
2022-11-19T08:39:11.264Z,97568.22
2022-11-19T08:41:56.756Z,97578.13
2022-11-19T08:44:24.016Z,97576.69
2022-11-19T08:46:50.995Z,97579.97
2022-11-19T08:49:18.108Z,97582.75
2022-11-19T08:51:45.082Z,97593.84
2022-11-19T08:54:13.238Z,97599.59
2022-11-19T08:56:40.344Z,97593.69
2022-11-19T08:59:07.369Z,97603.25
2022-11-19T09:01:34.361Z,97595.81
2022-11-19T09:04:01.663Z,97593.56
2022-11-19T09:06:28.662Z,97596.63
2022-11-19T09:08:55.670Z,97607.84
2022-11-19T09:11:23.255Z,97602.44
2022-11-19T09:13:50.297Z,97606.06
2022-11-19T09:16:17.632Z,97612.44
2022-11-19T09:18:44.747Z,97612.78
2022-11-19T09:21:12.760Z,97616.13
2022-11-19T09:23:41.351Z,97625.88
2022-11-19T09:26:13.818Z,97631.97
2022-11-19T09:28:41.863Z,97624.34
2022-11-19T09:31:15.162Z,97625.03
2022-11-19T09:33:46.021Z,97624.72
2022-11-19T09:36:14.449Z,97626.06
2022-11-19T09:38:41.817Z,97626.41
2022-11-19T09:41:17.712Z,97631.22
2022-11-19T09:44:15.643Z,97631.69
2022-11-19T09:47:10.518Z,97632.88
2022-11-19T09:49:44.323Z,97637.78
2022-11-19T09:52:18.553Z,97636.78
2022-11-19T09:54:56.793Z,97634.53
2022-11-19T09:57:52.096Z,97634.59
2022-11-19T10:00:25.742Z,97635.31
2022-11-19T10:02:53.599Z,97624.13
2022-11-19T10:05:39.955Z,97629.41
2022-11-19T10:08:17.203Z,97628.00
2022-11-19T10:11:27.032Z,97622.72
2022-11-19T10:14:13.221Z,97632.88
2022-11-19T10:17:12.251Z,97628.03
2022-11-19T10:20:18.682Z,97628.94
2022-11-19T10:23:15.783Z,97626.22
2022-11-19T10:25:55.873Z,97624.22
2022-11-19T10:28:28.170Z,97627.50
2022-11-19T10:31:07.322Z,97615.44
2022-11-19T10:33:50.688Z,97618.50
2022-11-19T10:36:27.473Z,97619.66
2022-11-19T10:39:12.820Z,97618.09
2022-11-19T10:41:56.077Z,97613.19
2022-11-19T10:44:57.914Z,97623.00
2022-11-19T10:47:37.905Z,97614.66
2022-11-19T10:50:09.963Z,97610.28
2022-11-19T10:52:50.251Z,97605.13
2022-11-19T10:55:36.310Z,97605.00
2022-11-19T10:58:43.097Z,97603.13
2022-11-19T11:01:32.899Z,97603.19
2022-11-19T11:04:21.316Z,97604.50
2022-11-19T11:06:57.893Z,97597.41
2022-11-19T11:09:37.376Z,97601.44
2022-11-19T11:12:31.332Z,97600.94
2022-11-19T11:15:15.747Z,97605.09
2022-11-19T11:17:44.691Z,97600.81
2022-11-19T11:20:17.170Z,97604.28
2022-11-19T11:22:50.340Z,97607.06
2022-11-19T11:25:28.935Z,97606.84
2022-11-19T11:28:13.134Z,97605.81
2022-11-19T11:31:05.162Z,97612.31
2022-11-19T11:33:39.956Z,97611.84
2022-11-19T11:36:12.841Z,97604.81
2022-11-19T11:38:46.925Z,97608.78
2022-11-19T11:42:03.642Z,97599.31
2022-11-19T11:44:31.940Z,97607.47
2022-11-19T11:47:11.418Z,97606.81
2022-11-19T11:49:45.295Z,97606.00
2022-11-19T11:52:12.139Z,97606.72
2022-11-19T11:55:04.909Z,97603.16
2022-11-19T11:57:36.143Z,97605.31
2022-11-19T12:00:35.065Z,97607.00
2022-11-19T12:03:20.186Z,97607.72
2022-11-19T12:06:12.936Z,97603.81
2022-11-19T12:09:09.888Z,97604.56
2022-11-19T12:11:57.956Z,97603.09
2022-11-19T12:14:42.944Z,97607.72
2022-11-19T12:17:39.025Z,97602.97
2022-11-19T12:21:11.760Z,97608.88
2022-11-19T12:24:06.135Z,97596.47
2022-11-19T12:26:47.707Z,97602.31
2022-11-19T12:29:41.984Z,97601.94
2022-11-19T12:32:44.647Z,97602.97
2022-11-19T12:35:43.008Z,97603.84
2022-11-19T12:38:35.079Z,97595.63
2022-11-19T12:41:13.946Z,97600.03
2022-11-19T12:44:02.702Z,97593.91
2022-11-19T12:47:03.708Z,97604.69
2022-11-19T12:50:03.258Z,97604.75
2022-11-19T12:53:13.005Z,97602.25
2022-11-19T12:56:17.135Z,97608.53
2022-11-19T12:59:00.940Z,97611.44
2022-11-19T13:01:34.944Z,97610.03
2022-11-19T13:04:13.046Z,97612.56
2022-11-19T13:07:06.016Z,97621.78
2022-11-19T13:09:44.171Z,97616.28
2022-11-19T13:12:18.698Z,97616.75
2022-11-19T13:14:59.554Z,97610.19
2022-11-19T13:17:33.857Z,97627.88
2022-11-19T13:20:54.639Z,97619.63
2022-11-19T13:23:38.411Z,97619.53
2022-11-19T13:26:14.379Z,97616.44
2022-11-19T13:28:51.648Z,97618.09
2022-11-19T13:31:31.115Z,97620.00
2022-11-19T13:34:11.654Z,97623.00
2022-11-19T13:36:46.814Z,97605.72
2022-11-19T13:39:24.867Z,97613.56
2022-11-19T13:42:13.207Z,97607.84
2022-11-19T13:44:43.517Z,97604.63
2022-11-19T13:47:19.096Z,97609.53
2022-11-19T13:49:54.118Z,97613.72
2022-11-19T13:52:34.017Z,97614.06
2022-11-19T13:55:01.571Z,97619.81
2022-11-19T13:57:37.950Z,97616.25
2022-11-19T14:00:28.802Z,97615.88
2022-11-19T14:03:26.516Z,97617.78
2022-11-19T14:06:15.111Z,97613.63
2022-11-19T14:09:09.255Z,97618.03
2022-11-19T14:12:03.770Z,97617.53
2022-11-19T14:15:36.846Z,97613.09
2022-11-19T14:18:54.645Z,97617.44
2022-11-19T14:21:43.175Z,97624.84
2022-11-19T14:24:43.781Z,97616.97
2022-11-19T14:27:14.020Z,97616.00
2022-11-19T14:29:43.900Z,97618.88
2022-11-19T14:32:10.713Z,97619.84
2022-11-19T14:35:07.618Z,97623.06
2022-11-19T14:37:45.631Z,97623.53
2022-11-19T14:40:12.525Z,97631.03
2022-11-19T14:43:19.301Z,97639.56
2022-11-19T14:46:09.172Z,97639.44
2022-11-19T14:48:50.883Z,97642.31
2022-11-19T14:51:38.925Z,97646.97
2022-11-19T14:54:31.361Z,97645.16
2022-11-19T14:57:12.232Z,97650.66
2022-11-19T14:59:39.947Z,97651.00
2022-11-19T15:02:39.646Z,97654.84
2022-11-19T15:05:19.333Z,97654.09
2022-11-19T15:07:55.609Z,97658.41
2022-11-19T15:10:32.167Z,97651.47
2022-11-19T15:13:25.786Z,97659.69
2022-11-19T15:15:57.296Z,97660.31
2022-11-19T15:18:41.274Z,97660.56
2022-11-19T15:21:44.244Z,97667.31
2022-11-19T15:24:47.385Z,97659.34
2022-11-19T15:28:39.995Z,97668.50
2022-11-19T15:31:26.291Z,97665.56
2022-11-19T15:35:10.450Z,97662.66
2022-11-19T15:38:01.432Z,97660.63
2022-11-19T15:40:34.001Z,97659.28
2022-11-19T15:43:03.967Z,97658.34
2022-11-19T15:45:39.630Z,97662.50
2022-11-19T15:48:35.232Z,97663.31
2022-11-19T15:51:04.918Z,97666.44
2022-11-19T15:53:31.968Z,97661.81
2022-11-19T15:56:13.014Z,97663.22
2022-11-19T15:58:47.854Z,97662.22
2022-11-19T16:01:18.090Z,97668.47
2022-11-19T16:03:45.695Z,97663.66
2022-11-19T16:06:23.926Z,97669.22
2022-11-19T16:08:57.239Z,97663.81
2022-11-19T16:11:48.868Z,97664.25
2022-11-19T16:14:44.379Z,97671.94
2022-11-19T16:17:43.114Z,97656.78
2022-11-19T16:20:10.915Z,97665.75
2022-11-19T16:22:53.988Z,97659.22
2022-11-19T16:25:27.676Z,97663.25
2022-11-19T16:27:57.520Z,97670.06
2022-11-19T16:30:29.020Z,97683.22
2022-11-19T16:33:00.240Z,97679.25
2022-11-19T16:35:32.852Z,97679.22
2022-11-19T16:38:00.859Z,97678.66
2022-11-19T16:40:49.246Z,97678.63
2022-11-19T16:43:16.825Z,97680.69
2022-11-19T16:45:46.632Z,97673.63
2022-11-19T16:48:42.740Z,97681.25
2022-11-19T16:51:54.772Z,97682.88
2022-11-19T16:54:45.701Z,97689.94
2022-11-19T16:57:24.274Z,97676.59
2022-11-19T16:59:58.336Z,97685.13
2022-11-19T17:02:31.800Z,97692.19
2022-11-19T17:05:08.142Z,97691.81
2022-11-19T17:07:36.501Z,97688.22
2022-11-19T17:10:31.529Z,97688.78
2022-11-19T17:13:03.911Z,97694.56
2022-11-19T17:15:42.028Z,97702.94
2022-11-19T17:18:21.696Z,97703.25
2022-11-19T17:20:54.395Z,97706.28
2022-11-19T17:23:23.276Z,97712.16
2022-11-19T17:25:57.135Z,97713.72
2022-11-19T17:28:46.601Z,97712.63
2022-11-19T17:31:26.152Z,97722.84
2022-11-19T17:34:09.575Z,97717.28
2022-11-19T17:36:36.670Z,97722.28
2022-11-19T17:39:10.427Z,97724.41
2022-11-19T17:41:56.900Z,97714.13
2022-11-19T17:44:39.387Z,97722.59
2022-11-19T17:47:22.443Z,97722.19
2022-11-19T17:49:50.970Z,97730.44
2022-11-19T17:52:30.118Z,97733.28
2022-11-19T17:55:16.820Z,97728.19
2022-11-19T17:57:43.881Z,97732.22
2022-11-19T18:00:12.072Z,97731.41
2022-11-19T18:02:39.040Z,97732.38
2022-11-19T18:05:16.872Z,97733.28
2022-11-19T18:07:43.777Z,97738.72
2022-11-19T18:10:10.842Z,97740.63
2022-11-19T18:12:37.760Z,97743.03
2022-11-19T18:15:05.959Z,97734.84
2022-11-19T18:17:32.831Z,97738.22
2022-11-19T18:19:59.787Z,97747.34
2022-11-19T18:22:26.782Z,97745.03
2022-11-19T18:24:53.846Z,97739.03
2022-11-19T18:27:20.995Z,97747.16
2022-11-19T18:29:48.046Z,97740.69
2022-11-19T18:32:16.876Z,97743.66
2022-11-19T18:34:45.677Z,97744.28
2022-11-19T18:37:13.242Z,97746.91
2022-11-19T18:39:40.242Z,97746.22
2022-11-19T18:42:11.829Z,97749.69
2022-11-19T18:44:41.614Z,97747.50
2022-11-19T18:47:14.574Z,97754.84
2022-11-19T18:49:42.140Z,97755.97
2022-11-19T18:52:15.167Z,97752.50
2022-11-19T18:54:42.459Z,97755.75
2022-11-19T18:57:10.544Z,97753.34
2022-11-19T18:59:38.295Z,97757.00
2022-11-19T19:02:06.243Z,97754.47
2022-11-19T19:04:33.331Z,97754.47
2022-11-19T19:07:00.385Z,97757.09
2022-11-19T19:09:27.474Z,97755.63
2022-11-19T19:12:13.963Z,97759.38
2022-11-19T19:14:42.945Z,97757.00
2022-11-19T19:17:11.249Z,97762.34
2022-11-19T19:19:39.256Z,97758.47
2022-11-19T19:22:07.285Z,97767.03
2022-11-19T19:24:34.712Z,97774.06
2022-11-19T19:27:02.425Z,97770.63
2022-11-19T19:29:29.414Z,97776.38
2022-11-19T19:31:57.980Z,97779.22
2022-11-19T19:34:25.000Z,97778.72
2022-11-19T19:36:53.673Z,97777.16
2022-11-19T19:39:21.187Z,97781.75
2022-11-19T19:41:49.215Z,97781.25
2022-11-19T19:44:16.459Z,97785.44
2022-11-19T19:46:43.456Z,97778.31
2022-11-19T19:49:10.478Z,97785.75
2022-11-19T19:51:37.438Z,97792.69
2022-11-19T19:54:04.550Z,97793.84
2022-11-19T19:56:32.589Z,97795.50
2022-11-19T19:59:00.947Z,97794.91
2022-11-19T20:01:34.077Z,97799.91
2022-11-19T20:04:07.237Z,97794.16
2022-11-19T20:06:36.507Z,97800.97
2022-11-19T20:09:08.400Z,97801.72
2022-11-19T20:11:37.260Z,97802.66
2022-11-19T20:14:05.067Z,97805.41
2022-11-19T20:16:33.566Z,97812.94
2022-11-19T20:19:01.688Z,97811.47
2022-11-19T20:21:33.816Z,97813.44
2022-11-19T20:24:00.988Z,97813.97
2022-11-19T20:26:30.823Z,97813.25
2022-11-19T20:29:00.767Z,97813.88
2022-11-19T20:31:29.579Z,97814.09
2022-11-19T20:33:59.864Z,97817.88
2022-11-19T20:36:30.241Z,97820.19
2022-11-19T20:38:58.045Z,97818.16
2022-11-19T20:41:45.031Z,97820.19
2022-11-19T20:44:25.905Z,97811.44
2022-11-19T20:47:03.977Z,97817.66
2022-11-19T20:49:36.187Z,97816.50
2022-11-19T20:52:03.870Z,97825.41
2022-11-19T20:54:32.490Z,97835.25
2022-11-19T20:57:00.564Z,97831.38
2022-11-19T20:59:28.294Z,97831.38
2022-11-19T21:01:56.841Z,97838.84
2022-11-19T21:04:26.363Z,97840.09
2022-11-19T21:06:56.203Z,97841.44
2022-11-19T21:09:24.008Z,97850.13
2022-11-19T21:11:51.307Z,97855.25
2022-11-19T21:14:18.295Z,97845.59
2022-11-19T21:16:45.590Z,97844.38
2022-11-19T21:19:13.509Z,97846.31
2022-11-19T21:21:40.510Z,97844.44
2022-11-19T21:24:08.204Z,97841.25
2022-11-19T21:26:35.317Z,97847.50
2022-11-19T21:29:02.302Z,97846.63
2022-11-19T21:31:39.220Z,97838.06
2022-11-19T21:34:17.881Z,97843.41
2022-11-19T21:36:46.300Z,97837.09
2022-11-19T21:39:16.288Z,97840.84
2022-11-19T21:41:43.875Z,97837.31
2022-11-19T21:44:11.935Z,97837.69
2022-11-19T21:46:41.201Z,97836.06
2022-11-19T21:49:08.204Z,97832.63
2022-11-19T21:51:35.153Z,97831.72
2022-11-19T21:54:02.212Z,97831.56
2022-11-19T21:56:35.250Z,97830.50
2022-11-19T21:59:05.729Z,97831.72
2022-11-19T22:01:32.709Z,97838.22
2022-11-19T22:03:59.732Z,97833.19
2022-11-19T22:06:26.887Z,97840.59
2022-11-19T22:08:53.833Z,97833.59
2022-11-19T22:11:29.811Z,97835.09
2022-11-19T22:14:04.131Z,97845.53
2022-11-19T22:16:34.792Z,97842.06
2022-11-19T22:19:01.855Z,97845.81
2022-11-19T22:21:29.367Z,97852.72
2022-11-19T22:23:56.611Z,97853.56
2022-11-19T22:26:23.892Z,97848.22
2022-11-19T22:28:50.892Z,97848.44
2022-11-19T22:31:17.907Z,97851.09
2022-11-19T22:33:45.081Z,97841.94
2022-11-19T22:36:12.072Z,97850.00
2022-11-19T22:38:39.479Z,97838.03
2022-11-19T22:41:11.031Z,97845.31
2022-11-19T22:43:39.290Z,97842.69
2022-11-19T22:46:08.752Z,97841.38
2022-11-19T22:48:36.453Z,97843.97
2022-11-19T22:51:24.918Z,97840.38
2022-11-19T22:53:54.410Z,97842.53
2022-11-19T22:56:27.878Z,97833.59
2022-11-19T22:58:55.932Z,97843.06
2022-11-19T23:01:32.484Z,97843.69
2022-11-19T23:04:03.133Z,97843.22
2022-11-19T23:06:30.116Z,97848.25
2022-11-19T23:08:57.140Z,97847.44
2022-11-19T23:11:43.408Z,97849.72
2022-11-19T23:14:13.944Z,97843.00
2022-11-19T23:16:42.071Z,97840.03
2022-11-19T23:19:10.368Z,97843.03
2022-11-19T23:21:38.132Z,97853.22
2022-11-19T23:24:05.492Z,97841.94
2022-11-19T23:26:34.326Z,97837.38
2022-11-19T23:29:01.416Z,97832.41
2022-11-19T23:31:34.714Z,97838.34
2022-11-19T23:34:02.054Z,97837.72
2022-11-19T23:36:38.457Z,97840.72
2022-11-19T23:39:09.857Z,97841.66
2022-11-19T23:41:36.968Z,97846.69
2022-11-19T23:44:04.283Z,97845.09
2022-11-19T23:46:34.584Z,97845.19
2022-11-19T23:49:02.720Z,97841.84
2022-11-19T23:51:34.395Z,97843.44
2022-11-19T23:54:02.325Z,97844.69
2022-11-19T23:56:32.526Z,97840.44
2022-11-19T23:59:01.717Z,97835.38
